createdAt,value
2019-05-19T00:00:43.940Z,6.40
2019-05-19T00:03:14.054Z,3.60
2019-05-19T00:05:44.071Z,4.27
2019-05-19T00:08:14.090Z,3.90
2019-05-19T00:10:44.096Z,4.70
2019-05-19T00:13:14.102Z,4.33
2019-05-19T00:15:44.131Z,2.80
2019-05-19T00:18:14.167Z,6.17
2019-05-19T00:20:44.850Z,4.07
2019-05-19T00:23:14.763Z,5.33
2019-05-19T00:25:44.733Z,3.90
2019-05-19T00:28:14.834Z,3.47
2019-05-19T00:30:44.870Z,3.97
2019-05-19T00:33:14.778Z,5.33
2019-05-19T00:35:44.707Z,4.63
2019-05-19T00:38:14.720Z,6.57
2019-05-19T00:40:44.746Z,4.77
2019-05-19T00:43:14.787Z,7.30
2019-05-19T00:45:44.847Z,4.27
2019-05-19T00:48:14.894Z,3.40
2019-05-19T00:50:45.191Z,4.00
2019-05-19T00:53:15.127Z,3.40
2019-05-19T00:55:45.135Z,4.47
2019-05-19T00:58:15.324Z,3.97
2019-05-19T01:00:45.234Z,4.17
2019-05-19T01:03:15.157Z,5.20
2019-05-19T01:05:45.201Z,4.30
2019-05-19T01:08:15.199Z,5.90
2019-05-19T01:10:45.175Z,5.97
2019-05-19T01:13:15.111Z,6.63
2019-05-19T01:15:45.059Z,4.07
2019-05-19T01:18:15.066Z,4.50
2019-05-19T01:20:45.187Z,2.90
2019-05-19T01:23:15.266Z,5.00
2019-05-19T01:25:45.200Z,4.10
2019-05-19T01:28:15.260Z,4.67
2019-05-19T01:30:45.222Z,7.50
2019-05-19T01:33:15.278Z,8.03
2019-05-19T01:35:45.323Z,7.87
2019-05-19T01:38:15.311Z,6.20
2019-05-19T01:40:45.332Z,6.17
2019-05-19T01:43:15.283Z,5.43
2019-05-19T01:45:45.344Z,7.97
2019-05-19T01:48:15.330Z,8.57
2019-05-19T01:50:45.431Z,5.70
2019-05-19T01:53:15.435Z,4.93
2019-05-19T01:55:45.463Z,4.00
2019-05-19T01:58:15.403Z,5.87
2019-05-19T02:00:45.462Z,4.13
2019-05-19T02:03:15.504Z,4.47
2019-05-19T02:05:45.574Z,4.70
2019-05-19T02:08:15.547Z,3.90
2019-05-19T02:10:45.431Z,5.67
2019-05-19T02:13:15.282Z,4.10
2019-05-19T02:15:45.283Z,3.10
2019-05-19T02:18:15.372Z,3.90
2019-05-19T02:20:45.419Z,3.73
2019-05-19T02:23:15.374Z,4.50
2019-05-19T02:25:45.303Z,8.10
2019-05-19T02:28:15.295Z,5.93
2019-05-19T02:30:45.241Z,7.00
2019-05-19T02:33:15.303Z,6.53
2019-05-19T02:35:45.338Z,5.33
2019-05-19T02:38:15.353Z,3.97
2019-05-19T02:40:50.858Z,4.50
2019-05-19T02:43:22.559Z,4.10
2019-05-19T02:45:56.464Z,4.27
2019-05-19T02:48:28.100Z,5.73
2019-05-19T02:51:00.262Z,4.10
2019-05-19T02:53:31.880Z,6.20
2019-05-19T02:56:03.113Z,9.93
2019-05-19T02:58:33.968Z,7.60
2019-05-19T03:01:03.916Z,7.80
2019-05-19T03:03:34.015Z,6.07
2019-05-19T03:06:04.078Z,5.87
2019-05-19T03:08:34.158Z,7.37
2019-05-19T03:11:04.304Z,6.63
2019-05-19T03:13:34.232Z,8.17
2019-05-19T03:16:04.342Z,5.00
2019-05-19T03:18:34.411Z,5.27
2019-05-19T03:21:10.983Z,4.40
2019-05-19T03:23:36.178Z,3.97
2019-05-19T03:26:06.305Z,3.67
2019-05-19T03:28:36.328Z,3.27
2019-05-19T03:31:31.314Z,5.37
2019-05-19T03:34:01.318Z,4.33
2019-05-19T03:36:31.447Z,4.00
2019-05-19T03:39:01.467Z,4.77
2019-05-19T03:41:31.449Z,3.73
2019-05-19T03:44:01.788Z,5.50
2019-05-19T03:46:31.738Z,3.53
2019-05-19T03:49:01.722Z,6.07
2019-05-19T03:51:34.180Z,4.03
2019-05-19T03:54:04.217Z,2.83
2019-05-19T03:56:34.251Z,4.60
2019-05-19T03:59:04.293Z,3.50
2019-05-19T04:01:34.334Z,3.93
2019-05-19T04:04:04.470Z,9.13
2019-05-19T04:06:34.462Z,6.00
2019-05-19T04:09:06.344Z,5.07
2019-05-19T04:11:36.379Z,4.33
2019-05-19T04:14:06.403Z,5.80
2019-05-19T04:16:36.445Z,3.90
2019-05-19T04:19:06.623Z,6.53
2019-05-19T04:21:48.288Z,3.77
2019-05-19T04:24:08.305Z,3.57
2019-05-19T04:26:38.391Z,4.50
2019-05-19T04:29:08.440Z,4.23
2019-05-19T04:31:38.338Z,4.00
2019-05-19T04:34:08.352Z,5.60
2019-05-19T04:36:38.391Z,5.07
2019-05-19T04:39:08.592Z,5.60
2019-05-19T04:41:40.309Z,3.63
2019-05-19T04:44:10.169Z,4.33
2019-05-19T04:46:40.201Z,4.90
2019-05-19T04:49:10.168Z,3.57
2019-05-19T04:51:40.215Z,3.93
2019-05-19T04:54:10.163Z,3.50
2019-05-19T04:56:40.228Z,4.47
2019-05-19T04:59:10.270Z,3.90
2019-05-19T05:01:40.428Z,4.07
2019-05-19T05:04:10.524Z,3.47
2019-05-19T05:06:40.646Z,6.53
2019-05-19T05:09:10.938Z,7.77
2019-05-19T05:11:41.345Z,10.70
2019-05-19T05:14:11.447Z,5.30
2019-05-19T05:16:41.475Z,7.80
2019-05-19T05:19:11.440Z,4.90
2019-05-19T05:21:41.403Z,4.33
2019-05-19T05:24:11.407Z,4.70
2019-05-19T05:26:41.632Z,4.37
2019-05-19T05:29:11.577Z,4.13
2019-05-19T05:31:41.557Z,7.67
2019-05-19T05:34:11.562Z,6.63
2019-05-19T05:36:41.633Z,11.80
2019-05-19T05:39:11.786Z,9.47
2019-05-19T05:41:41.835Z,7.93
2019-05-19T05:44:11.906Z,7.60
2019-05-19T05:46:41.869Z,6.87
2019-05-19T05:49:11.905Z,8.40
2019-05-19T05:51:41.995Z,7.27
2019-05-19T05:54:12.054Z,8.23
2019-05-19T05:56:42.149Z,13.80
2019-05-19T05:59:12.254Z,12.07
2019-05-19T06:01:42.279Z,10.27
2019-05-19T06:04:12.932Z,9.90
2019-05-19T06:06:45.702Z,10.20
2019-05-19T06:09:14.651Z,10.77
2019-05-19T06:11:44.675Z,16.27
2019-05-19T06:14:14.731Z,14.27
2019-05-19T06:16:44.849Z,11.57
2019-05-19T06:19:14.863Z,9.50
2019-05-19T06:21:44.896Z,10.60
2019-05-19T06:24:14.959Z,8.03
2019-05-19T06:26:44.983Z,12.27
2019-05-19T06:29:15.137Z,8.47
2019-05-19T06:31:45.211Z,10.67
2019-05-19T06:34:15.248Z,8.30
2019-05-19T06:36:45.188Z,6.33
2019-05-19T06:39:15.256Z,9.60
2019-05-19T06:41:45.215Z,9.97
2019-05-19T06:44:15.286Z,10.03
2019-05-19T06:46:45.318Z,10.87
2019-05-19T06:49:15.355Z,12.17
2019-05-19T06:51:45.306Z,12.47
2019-05-19T06:54:15.227Z,10.03
2019-05-19T06:56:45.242Z,9.57
2019-05-19T06:59:15.282Z,7.43
2019-05-19T07:01:45.350Z,10.70
2019-05-19T07:04:15.394Z,7.87
2019-05-19T07:06:45.563Z,15.70
2019-05-19T07:09:15.573Z,8.47
2019-05-19T07:11:45.687Z,8.83
2019-05-19T07:14:15.652Z,6.73
2019-05-19T07:16:45.599Z,6.13
2019-05-19T07:19:15.607Z,9.90
2019-05-19T07:21:45.631Z,9.83
2019-05-19T07:24:17.322Z,6.70
2019-05-19T07:26:47.340Z,7.47
2019-05-19T07:29:17.325Z,7.27
2019-05-19T07:31:47.342Z,8.03
2019-05-19T07:34:17.451Z,8.50
2019-05-19T07:36:47.411Z,7.93
2019-05-19T07:39:17.547Z,8.90
2019-05-19T07:41:47.814Z,14.63
2019-05-19T07:44:17.935Z,13.40
2019-05-19T07:46:48.019Z,10.70
2019-05-19T07:49:18.087Z,10.33
2019-05-19T07:51:48.161Z,17.73
2019-05-19T07:54:18.222Z,15.27
2019-05-19T07:56:48.253Z,15.87
2019-05-19T07:59:18.212Z,17.90
2019-05-19T08:01:48.319Z,21.70
2019-05-19T08:04:18.450Z,18.10
2019-05-19T08:06:48.494Z,22.20
2019-05-19T08:09:18.523Z,16.80
2019-05-19T08:11:48.552Z,14.87
2019-05-19T08:14:18.599Z,17.07
2019-05-19T08:16:48.643Z,13.47
2019-05-19T08:19:18.615Z,12.93
2019-05-19T08:21:48.993Z,15.63
2019-05-19T08:24:19.047Z,17.53
2019-05-19T08:26:49.087Z,14.93
2019-05-19T08:29:19.451Z,15.18
2019-05-19T08:31:49.544Z,12.70
2019-05-19T08:34:19.626Z,14.27
2019-05-19T08:36:49.895Z,12.53
2019-05-19T08:39:19.941Z,10.10
2019-05-19T08:41:50.191Z,9.03
2019-05-19T08:44:20.278Z,12.80
2019-05-19T08:46:50.338Z,21.07
2019-05-19T08:49:20.421Z,17.23
2019-05-19T08:51:50.989Z,24.07
2019-05-19T08:54:21.092Z,25.87
2019-05-19T08:56:51.160Z,29.03
2019-05-19T08:59:21.266Z,25.93
2019-05-19T09:01:51.464Z,28.83
2019-05-19T09:04:21.557Z,25.63
2019-05-19T09:06:51.649Z,18.43
2019-05-19T09:09:21.740Z,16.93
2019-05-19T09:11:51.787Z,25.53
2019-05-19T09:14:21.901Z,29.03
2019-05-19T09:16:52.107Z,27.80
2019-05-19T09:19:22.096Z,31.90
2019-05-19T09:21:52.071Z,29.27
2019-05-19T09:24:30.079Z,27.97
2019-05-19T09:26:55.385Z,24.93
2019-05-19T09:29:25.646Z,19.70
2019-05-19T09:31:55.558Z,31.10
2019-05-19T09:34:26.362Z,29.67
2019-05-19T09:36:57.134Z,29.67
2019-05-19T09:39:27.155Z,26.77
2019-05-19T09:41:57.233Z,29.27
2019-05-19T09:44:27.264Z,33.37
2019-05-19T09:46:57.338Z,30.77
2019-05-19T09:49:33.786Z,27.83
2019-05-19T09:52:05.646Z,21.37
2019-05-19T09:54:44.954Z,28.20
2019-05-19T09:57:08.261Z,23.03
2019-05-19T09:59:39.109Z,20.23
2019-05-19T10:02:09.361Z,19.60
2019-05-19T10:04:39.890Z,19.83
2019-05-19T10:07:10.229Z,29.37
2019-05-19T10:10:00.951Z,26.70
2019-05-19T10:12:31.305Z,22.60
2019-05-19T10:15:02.484Z,22.70
2019-05-19T10:17:33.032Z,21.87
2019-05-19T10:20:03.109Z,21.17
2019-05-19T10:22:33.755Z,19.73
2019-05-19T10:25:21.033Z,21.20
2019-05-19T10:27:36.996Z,18.20
2019-05-19T10:30:07.960Z,25.67
2019-05-19T10:32:38.087Z,26.07
2019-05-19T10:35:08.391Z,35.20
2019-05-19T10:37:38.460Z,30.07
2019-05-19T10:40:08.996Z,26.77
2019-05-19T10:42:38.920Z,27.83
2019-05-19T10:45:09.987Z,20.83
2019-05-19T10:47:40.125Z,23.93
2019-05-19T10:50:10.411Z,24.53
2019-05-19T10:52:40.814Z,25.87
2019-05-19T10:55:11.051Z,23.47
2019-05-19T10:57:41.155Z,23.53
2019-05-19T11:00:11.723Z,17.90
2019-05-19T11:02:41.809Z,22.67
2019-05-19T11:05:12.578Z,22.93
2019-05-19T11:07:42.892Z,24.03
2019-05-19T11:10:13.084Z,23.10
2019-05-19T11:12:43.251Z,28.33
2019-05-19T11:15:13.915Z,22.40
2019-05-19T11:17:43.976Z,20.33
2019-05-19T11:20:14.128Z,19.67
2019-05-19T11:22:44.203Z,19.73
2019-05-19T11:25:14.404Z,20.67
2019-05-19T11:27:44.371Z,16.50
2019-05-19T11:30:14.584Z,15.77
2019-05-19T11:32:44.678Z,16.57
2019-05-19T11:35:14.908Z,22.80
2019-05-19T11:37:45.020Z,21.60
2019-05-19T11:40:16.842Z,31.60
2019-05-19T11:42:47.030Z,29.30
2019-05-19T11:45:17.414Z,23.43
2019-05-19T11:47:47.477Z,27.27
2019-05-19T11:50:17.730Z,26.57
2019-05-19T11:52:47.735Z,24.03
2019-05-19T11:55:17.826Z,20.13
2019-05-19T11:57:48.056Z,17.67
2019-05-19T12:00:18.805Z,16.43
2019-05-19T12:02:48.879Z,14.57
2019-05-19T12:05:18.939Z,13.40
2019-05-19T12:07:48.971Z,11.17
2019-05-19T12:10:19.361Z,14.13
2019-05-19T12:12:49.654Z,25.07
2019-05-19T12:15:21.123Z,25.30
2019-05-19T12:17:51.305Z,31.87
2019-05-19T12:20:21.382Z,28.30
2019-05-19T12:22:51.474Z,26.17
2019-05-19T12:25:21.574Z,26.57
2019-05-19T12:27:51.632Z,27.17
2019-05-19T12:30:21.836Z,22.47
2019-05-19T12:32:51.886Z,30.37
2019-05-19T12:35:21.953Z,30.13
2019-05-19T12:37:52.033Z,36.83
2019-05-19T12:40:22.829Z,30.10
2019-05-19T12:42:53.058Z,33.67
2019-05-19T12:45:23.111Z,36.00
2019-05-19T12:47:53.346Z,37.53
2019-05-19T12:50:23.431Z,35.50
2019-05-19T12:52:53.522Z,34.77
2019-05-19T12:55:23.778Z,33.47
2019-05-19T12:57:53.838Z,28.17
2019-05-19T13:00:26.088Z,26.80
2019-05-19T13:02:59.979Z,31.53
2019-05-19T13:05:41.256Z,39.30
2019-05-19T13:08:18.588Z,39.00
2019-05-19T13:10:44.280Z,41.97
2019-05-19T13:13:24.559Z,40.77
2019-05-19T13:15:55.305Z,45.27
2019-05-19T13:18:33.219Z,40.67
2019-05-19T13:21:03.612Z,38.10
2019-05-19T13:23:33.810Z,37.57
2019-05-19T13:26:04.098Z,38.43
2019-05-19T13:28:34.535Z,32.23
2019-05-19T13:31:07.551Z,30.37
2019-05-19T13:33:37.918Z,24.60
2019-05-19T13:36:08.040Z,24.77
2019-05-19T13:38:39.154Z,23.40
2019-05-19T13:41:09.303Z,23.17
2019-05-19T13:43:39.375Z,20.70
2019-05-19T13:46:09.451Z,18.50
2019-05-19T13:48:39.861Z,16.90
2019-05-19T13:51:11.070Z,13.70
2019-05-19T13:53:41.115Z,14.80
2019-05-19T13:56:11.266Z,15.17
2019-05-19T13:58:41.303Z,13.10
2019-05-19T14:01:11.442Z,20.27
2019-05-19T14:03:41.478Z,28.17
2019-05-19T14:06:11.663Z,28.50
2019-05-19T14:08:41.843Z,28.57
2019-05-19T14:11:11.883Z,27.93
2019-05-19T14:13:41.968Z,26.37
2019-05-19T14:16:12.062Z,27.03
2019-05-19T14:18:42.104Z,23.30
2019-05-19T14:21:12.160Z,20.37
2019-05-19T14:23:42.199Z,17.50
2019-05-19T14:26:12.267Z,13.87
2019-05-19T14:28:42.393Z,10.83
2019-05-19T14:31:12.547Z,10.57
2019-05-19T14:33:42.509Z,8.53
2019-05-19T14:36:12.599Z,5.13
2019-05-19T14:38:59.864Z,6.53
2019-05-19T14:41:33.707Z,6.70
2019-05-19T14:44:04.657Z,5.73
2019-05-19T14:46:34.679Z,5.10
2019-05-19T14:49:05.516Z,5.43
2019-05-19T14:51:36.553Z,4.27
2019-05-19T14:54:07.664Z,5.43
2019-05-19T14:56:39.302Z,5.33
2019-05-19T14:59:09.379Z,4.53
2019-05-19T15:01:39.282Z,3.47
2019-05-19T15:04:09.999Z,4.23
2019-05-19T15:06:40.034Z,6.10
2019-05-19T15:09:10.035Z,3.33
2019-05-19T15:11:40.350Z,3.80
2019-05-19T15:14:10.431Z,6.00
2019-05-19T15:16:40.451Z,4.17
2019-05-19T15:19:10.492Z,7.07
2019-05-19T15:21:40.394Z,6.17
2019-05-19T15:24:10.441Z,7.33
2019-05-19T15:26:40.459Z,4.23
2019-05-19T15:29:11.003Z,7.60
2019-05-19T15:31:41.593Z,6.77
2019-05-19T15:34:11.664Z,5.43
2019-05-19T15:36:41.737Z,12.13
2019-05-19T15:39:14.433Z,14.10
2019-05-19T15:41:43.410Z,10.87
2019-05-19T15:44:13.673Z,14.07
2019-05-19T15:46:43.742Z,8.27
2019-05-19T15:49:13.779Z,7.83
2019-05-19T15:51:58.848Z,11.20
2019-05-19T15:54:16.223Z,9.60
2019-05-19T15:56:46.379Z,11.50
2019-05-19T15:59:16.449Z,14.47
2019-05-19T16:01:46.550Z,15.53
2019-05-19T16:04:16.539Z,13.70
2019-05-19T16:06:46.656Z,11.07
2019-05-19T16:09:17.584Z,10.27
2019-05-19T16:11:48.052Z,8.60
2019-05-19T16:14:18.456Z,7.90
2019-05-19T16:16:48.597Z,11.27
2019-05-19T16:19:18.744Z,11.43
2019-05-19T16:21:49.329Z,8.07
2019-05-19T16:24:19.367Z,6.67
2019-05-19T16:26:49.999Z,6.10
2019-05-19T16:29:21.763Z,6.77
2019-05-19T16:31:52.608Z,7.23
2019-05-19T16:34:23.546Z,6.03
2019-05-19T16:36:54.517Z,10.53
2019-05-19T16:39:25.592Z,9.27
2019-05-19T16:41:56.184Z,10.63
2019-05-19T16:44:26.846Z,7.97
2019-05-19T16:46:57.566Z,7.97
2019-05-19T16:49:27.949Z,7.30
2019-05-19T16:51:58.793Z,6.53
2019-05-19T16:54:33.550Z,7.63
2019-05-19T16:57:04.313Z,7.83
2019-05-19T16:59:34.385Z,9.53
2019-05-19T17:02:05.084Z,9.63
2019-05-19T17:04:35.834Z,9.27
2019-05-19T17:07:06.770Z,8.10
2019-05-19T17:09:37.157Z,9.07
2019-05-19T17:12:07.179Z,12.87
2019-05-19T17:14:37.993Z,7.70
2019-05-19T17:17:08.741Z,8.73
2019-05-19T17:19:39.479Z,7.37
2019-05-19T17:22:10.520Z,8.40
2019-05-19T17:24:40.875Z,9.57
2019-05-19T17:27:10.977Z,14.63
2019-05-19T17:29:41.701Z,16.60
2019-05-19T17:32:12.244Z,15.67
2019-05-19T17:34:42.351Z,12.83
2019-05-19T17:37:12.640Z,14.63
2019-05-19T17:39:43.038Z,15.43
2019-05-19T17:42:13.976Z,16.27
2019-05-19T17:44:44.361Z,16.17
2019-05-19T17:47:15.238Z,14.77
2019-05-19T17:49:45.887Z,12.00
2019-05-19T17:52:18.096Z,13.37
2019-05-19T17:54:48.392Z,13.30
2019-05-19T17:57:21.672Z,15.27
2019-05-19T17:59:52.809Z,11.71
2019-05-19T18:02:22.859Z,18.43
2019-05-19T18:04:52.995Z,15.70
2019-05-19T18:07:23.039Z,15.23
2019-05-19T18:09:53.162Z,12.87
2019-05-19T18:12:23.268Z,12.70
2019-05-19T18:14:53.300Z,14.33
2019-05-19T18:17:23.382Z,15.53
2019-05-19T18:22:26.398Z,14.20
2019-05-19T18:24:56.467Z,17.53
2019-05-19T18:27:26.626Z,15.27
2019-05-19T18:29:56.674Z,13.77
2019-05-19T18:32:26.729Z,11.70
2019-05-19T18:34:56.717Z,13.93
2019-05-19T18:37:26.945Z,17.77
2019-05-19T18:39:57.550Z,14.00
2019-05-19T18:42:27.517Z,12.67
2019-05-19T18:44:57.501Z,12.30
2019-05-19T18:47:27.511Z,12.07
2019-05-19T18:49:57.585Z,11.67
2019-05-19T18:52:27.717Z,10.83
2019-05-19T18:54:57.826Z,11.27
2019-05-19T18:57:28.556Z,9.07
2019-05-19T18:59:58.705Z,10.77
2019-05-19T19:02:29.371Z,11.47
2019-05-19T19:04:59.585Z,9.97
2019-05-19T19:07:50.942Z,9.03
2019-05-19T19:10:20.992Z,8.80
2019-05-19T19:12:51.070Z,9.97
2019-05-19T19:15:20.994Z,11.93
2019-05-19T19:17:51.067Z,11.33
2019-05-19T19:20:21.208Z,8.30
2019-05-19T19:22:51.383Z,9.60
2019-05-19T19:25:21.460Z,6.57
2019-05-19T19:27:51.427Z,8.23
2019-05-19T19:30:21.518Z,7.50
2019-05-19T19:32:51.896Z,6.60
2019-05-19T19:35:21.945Z,9.00
2019-05-19T19:37:52.066Z,10.60
2019-05-19T19:40:29.088Z,7.27
2019-05-19T19:43:00.298Z,5.47
2019-05-19T19:45:30.429Z,4.70
2019-05-19T19:48:00.453Z,5.33
2019-05-19T19:50:30.466Z,5.13
2019-05-19T19:53:00.604Z,4.13
2019-05-19T19:55:30.763Z,4.17
2019-05-19T19:58:00.791Z,6.50
2019-05-19T20:00:42.098Z,7.23
2019-05-19T20:03:12.318Z,7.07
2019-05-19T20:05:42.610Z,7.30
2019-05-19T20:08:12.665Z,5.60
2019-05-19T20:10:42.710Z,6.30
2019-05-19T20:13:12.733Z,6.80
2019-05-19T20:15:42.798Z,7.23
2019-05-19T20:18:12.794Z,9.53
2019-05-19T20:20:42.758Z,7.90
2019-05-19T20:23:12.869Z,6.77
2019-05-19T20:25:42.898Z,4.93
2019-05-19T20:28:12.919Z,5.40
2019-05-19T20:30:43.069Z,9.43
2019-05-19T20:33:13.052Z,7.20
2019-05-19T20:35:43.101Z,8.60
2019-05-19T20:38:13.106Z,12.97
2019-05-19T20:40:43.488Z,7.00
2019-05-19T20:43:13.536Z,7.60
2019-05-19T20:45:43.423Z,5.43
2019-05-19T20:48:13.457Z,7.90
2019-05-19T20:50:43.449Z,10.33
2019-05-19T20:53:13.426Z,6.60
2019-05-19T20:55:43.385Z,13.03
2019-05-19T20:58:13.264Z,7.03
2019-05-19T21:00:50.821Z,8.70
2019-05-19T21:03:15.271Z,6.00
2019-05-19T21:05:45.219Z,17.43
2019-05-19T21:08:15.265Z,8.97
2019-05-19T21:10:45.410Z,8.97
2019-05-19T21:13:15.395Z,8.20
2019-05-19T21:15:48.242Z,7.00
2019-05-19T21:18:18.255Z,9.97
2019-05-19T21:20:49.040Z,9.30
2019-05-19T21:23:21.030Z,7.63
2019-05-19T21:25:51.104Z,10.03
2019-05-19T21:28:20.987Z,15.90
2019-05-19T21:31:04.820Z,8.17
2019-05-19T21:33:22.762Z,10.33
2019-05-19T21:35:52.708Z,9.40
2019-05-19T21:38:22.655Z,13.20
2019-05-19T21:40:52.715Z,9.27
2019-05-19T21:43:22.679Z,9.50
2019-05-19T21:45:52.647Z,10.67
2019-05-19T21:48:32.391Z,7.60
2019-05-19T21:51:02.628Z,7.27
2019-05-19T21:53:32.886Z,6.63
2019-05-19T21:56:02.908Z,6.60
2019-05-19T21:58:32.839Z,4.73
2019-05-19T22:01:02.777Z,6.00
2019-05-19T22:03:32.800Z,5.80
2019-05-19T22:06:02.748Z,4.13
2019-05-19T22:08:32.801Z,4.33
2019-05-19T22:11:04.532Z,6.57
2019-05-19T22:13:34.510Z,4.87
2019-05-19T22:16:13.037Z,4.20
2019-05-19T22:18:36.252Z,4.20
2019-05-19T22:21:06.202Z,7.00
2019-05-19T22:23:36.212Z,5.50
2019-05-19T22:26:06.220Z,7.77
2019-05-19T22:28:36.248Z,6.90
2019-05-19T22:31:06.180Z,6.37
2019-05-19T22:33:36.291Z,6.83
2019-05-19T22:36:06.367Z,13.50
2019-05-19T22:38:36.464Z,11.90
2019-05-19T22:41:06.518Z,11.03
2019-05-19T22:43:36.473Z,16.33
2019-05-19T22:46:06.500Z,11.03
2019-05-19T22:48:36.512Z,8.87
2019-05-19T22:51:06.453Z,13.20
2019-05-19T22:53:36.487Z,8.67
2019-05-19T22:56:06.538Z,13.63
2019-05-19T22:58:36.637Z,7.53
2019-05-19T23:01:06.641Z,7.97
2019-05-19T23:03:36.583Z,9.23
2019-05-19T23:06:06.643Z,16.47
2019-05-19T23:08:36.715Z,13.37
2019-05-19T23:11:06.811Z,19.80
2019-05-19T23:13:36.847Z,17.77
2019-05-19T23:16:06.871Z,14.77
2019-05-19T23:18:36.822Z,11.97
2019-05-19T23:21:06.800Z,19.93
2019-05-19T23:23:36.671Z,15.47
2019-05-19T23:26:06.676Z,16.93
2019-05-19T23:28:36.692Z,9.43
2019-05-19T23:31:06.668Z,17.70
2019-05-19T23:33:36.634Z,9.77
2019-05-19T23:36:06.587Z,7.37
2019-05-19T23:38:36.632Z,9.90
2019-05-19T23:41:06.575Z,8.07
2019-05-19T23:43:36.588Z,12.80
2019-05-19T23:46:06.628Z,14.77
2019-05-19T23:48:36.513Z,10.00
2019-05-19T23:51:06.447Z,9.50
2019-05-19T23:53:36.396Z,10.53
2019-05-19T23:56:07.009Z,23.07
2019-05-19T23:58:37.023Z,10.07
